Time;durP1;ratioP1;P1;durP2;ratioP2;P2;SDS_P1;SDS_P2;PMS_P1;PMS_P2;Temp;Humidity;BMP_temperature;BMP_pressure;BME280_temperature;BME280_humidity;BME280_pressure;Samples;Min_cycle;Max_cycle;Signal;HPM_P1;HPM_P2
2021/06/06 00:01:44;;;;;;;0.75;0.40;;;15.10;99.90;;;;;;5024228;28;20086;-72
2021/06/06 00:04:14;;;;;;;0.73;0.38;;;15.10;99.90;;;;;;5015959;28;20082;-74
2021/06/06 00:06:40;;;;;;;0.43;0.40;;;15.10;99.90;;;;;;5013160;28;20082;-73
2021/06/06 00:09:09;;;;;;;1.25;0.30;;;15.10;99.90;;;;;;5012108;28;20074;-71
2021/06/06 00:11:39;;;;;;;0.43;0.40;;;15.10;99.90;;;;;;5013820;28;20086;-72
2021/06/06 00:14:07;;;;;;;0.50;0.30;;;15.10;99.90;;;;;;5014740;28;20124;-72
2021/06/06 00:16:40;;;;;;;1.25;0.30;;;15.10;99.90;;;;;;5008416;28;20105;-74
2021/06/06 00:19:06;;;;;;;0.88;0.40;;;15.10;99.90;;;;;;5010319;28;20122;-74
2021/06/06 00:21:34;;;;;;;0.40;0.25;;;15.20;99.90;;;;;;5021369;28;20504;-75
2021/06/06 00:24:00;;;;;;;0.50;0.30;;;15.30;99.90;;;;;;5019913;28;20078;-74
2021/06/06 00:26:26;;;;;;;1.20;0.50;;;15.30;99.90;;;;;;5021481;28;20558;-74
2021/06/06 00:28:52;;;;;;;2.10;0.50;;;15.20;99.90;;;;;;5025857;28;20090;-74
2021/06/06 00:31:18;;;;;;;0.60;0.38;;;15.10;99.90;;;;;;5015002;28;20223;-74
2021/06/06 00:33:44;;;;;;;0.90;0.60;;;15.20;99.90;;;;;;5021186;28;20079;-73
2021/06/06 00:36:11;;;;;;;0.57;0.32;;;15.20;99.90;;;;;;5012383;28;20086;-71
2021/06/06 00:38:36;;;;;;;0.25;0.20;;;15.20;99.90;;;;;;5030082;28;20085;-71
2021/06/06 00:41:04;;;;;;;0.70;0.43;;;15.20;99.90;;;;;;5026142;28;20097;-73
2021/06/06 00:43:29;;;;;;;0.80;0.30;;;15.20;99.90;;;;;;5031047;28;20078;-71
2021/06/06 00:45:55;;;;;;;0.32;0.30;;;15.20;99.90;;;;;;5017172;28;20587;-78
2021/06/06 00:48:21;;;;;;;0.82;0.50;;;15.20;99.90;;;;;;5017691;28;20438;-72
2021/06/06 00:50:51;;;;;;;1.50;0.60;;;15.20;99.90;;;;;;5014932;28;20179;-73
2021/06/06 00:53:38;;;;;;;1.05;0.60;;;15.30;99.90;;;;;;5047597;22;20106;-72
2021/06/06 00:56:07;;;;;;;1.77;0.50;;;15.30;99.90;;;;;;5042193;28;20078;-72
2021/06/06 00:58:34;;;;;;;1.27;0.30;;;15.30;99.90;;;;;;5030852;28;20078;-72
2021/06/06 01:01:00;;;;;;;0.47;0.20;;;15.10;99.90;;;;;;5031440;28;20743;-73
2021/06/06 01:03:26;;;;;;;0.52;0.40;;;15.30;99.90;;;;;;5031017;28;20231;-72
2021/06/06 01:05:54;;;;;;;0.80;0.50;;;15.30;99.90;;;;;;5026401;28;20124;-72
2021/06/06 01:08:20;;;;;;;0.70;0.40;;;15.20;99.90;;;;;;5029406;28;20940;-72
2021/06/06 01:10:50;;;;;;;0.40;0.28;;;15.10;99.90;;;;;;5027156;28;20476;-72
2021/06/06 01:13:27;;;;;;;1.08;0.32;;;15.20;99.90;;;;;;5027965;28;20155;-72
2021/06/06 01:16:09;;;;;;;3.03;0.38;;;15.10;99.90;;;;;;5028683;28;20095;-72
2021/06/06 01:18:41;;;;;;;0.70;0.60;;;15.10;99.90;;;;;;5010656;28;20431;-73
2021/06/06 01:21:26;;;;;;;1.30;0.40;;;15.10;99.90;;;;;;5029427;28;20663;-72
2021/06/06 01:24:29;;;;;;;0.70;0.50;;;15.30;99.90;;;;;;5049553;28;20096;-72
2021/06/06 01:27:00;;;;;;;0.90;0.45;;;15.20;99.90;;;;;;5028334;28;20100;-72
2021/06/06 01:29:52;;;;;;;1.10;0.50;;;15.20;99.90;;;;;;5029771;28;20486;-72
2021/06/06 01:32:25;;;;;;;0.70;0.60;;;15.20;99.90;;;;;;5029457;28;20086;-72
2021/06/06 01:35:07;;;;;;;1.00;0.73;;;15.10;99.90;;;;;;5008331;28;20547;-72
2021/06/06 01:37:37;;;;;;;1.30;0.45;;;15.20;99.90;;;;;;5030606;28;20411;-72
2021/06/06 01:40:14;;;;;;;0.80;0.60;;;15.20;99.90;;;;;;5031687;28;20146;-73
2021/06/06 01:42:44;;;;;;;1.52;0.70;;;15.20;99.90;;;;;;5029268;28;20220;-72
2021/06/06 01:45:17;;;;;;;1.05;0.40;;;15.10;99.90;;;;;;5033325;28;20074;-72
2021/06/06 01:47:47;;;;;;;0.75;0.52;;;15.10;99.90;;;;;;5028098;28;20109;-72
2021/06/06 01:50:22;;;;;;;0.93;0.47;;;15.20;99.90;;;;;;5029849;28;20081;-72
2021/06/06 01:52:49;;;;;;;2.05;0.63;;;15.10;99.90;;;;;;5025062;28;20108;-72
2021/06/06 01:55:19;;;;;;;1.15;0.70;;;15.00;99.90;;;;;;5029390;28;20080;-73
2021/06/06 01:57:45;;;;;;;1.50;0.35;;;15.10;99.90;;;;;;5028560;28;20727;-73
2021/06/06 02:00:46;;;;;;;1.00;0.57;;;15.10;99.90;;;;;;5028849;28;20093;-72
2021/06/06 02:03:12;;;;;;;0.88;0.50;;;15.10;99.90;;;;;;5012208;28;20101;-72
2021/06/06 02:05:39;;;;;;;0.95;0.50;;;15.10;99.90;;;;;;5028513;28;20070;-72
2021/06/06 02:08:08;;;;;;;0.73;0.47;;;15.10;99.90;;;;;;5028348;28;20101;-72
2021/06/06 02:10:42;;;;;;;0.70;0.30;;;15.10;99.90;;;;;;5027579;28;20472;-72
2021/06/06 02:13:12;;;;;;;1.30;0.60;;;15.10;99.90;;;;;;5027778;28;20100;-72
2021/06/06 02:15:40;;;;;;;0.90;0.60;;;14.90;99.90;;;;;;5026544;28;20082;-72
2021/06/06 02:18:08;;;;;;;1.23;0.68;;;14.90;99.90;;;;;;5026363;28;20659;-73
2021/06/06 02:20:37;;;;;;;2.55;0.60;;;15.00;99.90;;;;;;5032074;28;20715;-72
2021/06/06 02:23:03;;;;;;;2.10;0.63;;;14.90;99.90;;;;;;5030744;28;20119;-72
2021/06/06 02:25:30;;;;;;;1.65;0.63;;;15.00;99.90;;;;;;5025650;28;20066;-72
2021/06/06 02:28:14;;;;;;;1.35;0.52;;;15.00;99.90;;;;;;5027123;28;20100;-72
2021/06/06 02:31:07;;;;;;;1.58;0.93;;;15.10;99.90;;;;;;5035140;28;20088;-72
2021/06/06 02:33:52;;;;;;;1.60;0.50;;;14.90;99.90;;;;;;5025768;28;20843;-72
2021/06/06 02:36:19;;;;;;;1.90;0.57;;;15.00;99.90;;;;;;5026141;28;20073;-72
2021/06/06 02:38:50;;;;;;;1.02;0.50;;;15.10;99.90;;;;;;5026375;28;20100;-72
2021/06/06 02:41:23;;;;;;;3.20;0.55;;;15.00;99.90;;;;;;5027733;28;20586;-72
2021/06/06 02:44:01;;;;;;;1.23;0.60;;;15.00;99.90;;;;;;5031040;28;20186;-73
2021/06/06 02:46:28;;;;;;;1.30;0.40;;;14.90;99.90;;;;;;5031955;28;20077;-72
2021/06/06 02:49:02;;;;;;;1.00;0.70;;;15.00;99.90;;;;;;5031039;28;20084;-72
2021/06/06 02:51:28;;;;;;;0.80;0.65;;;14.90;99.90;;;;;;5028573;28;20073;-72
2021/06/06 02:54:00;;;;;;;1.25;0.50;;;15.00;99.90;;;;;;5028424;28;20101;-72
2021/06/06 02:56:34;;;;;;;1.75;0.40;;;15.00;99.90;;;;;;5026635;28;20497;-72
2021/06/06 02:59:06;;;;;;;1.02;0.73;;;14.90;99.90;;;;;;5028493;28;20082;-72
2021/06/06 03:01:36;;;;;;;0.47;0.40;;;15.00;99.90;;;;;;5027293;28;20464;-72
2021/06/06 03:04:07;;;;;;;1.42;0.45;;;15.10;99.90;;;;;;5030037;28;20098;-72
2021/06/06 03:06:40;;;;;;;0.93;0.60;;;15.10;99.90;;;;;;5027824;28;20487;-72
2021/06/06 03:09:08;;;;;;;0.70;0.47;;;15.10;99.90;;;;;;5028308;28;20169;-72
2021/06/06 03:11:34;;;;;;;1.20;0.65;;;14.90;99.90;;;;;;5028805;28;20085;-72
2021/06/06 03:14:07;;;;;;;1.05;0.43;;;15.00;99.90;;;;;;5027635;28;20101;-72
2021/06/06 03:16:35;;;;;;;1.35;0.52;;;15.00;99.90;;;;;;5026995;28;20070;-72
2021/06/06 03:19:03;;;;;;;0.88;0.63;;;15.10;99.90;;;;;;5011768;28;20073;-73
2021/06/06 03:21:36;;;;;;;0.70;0.52;;;14.90;99.90;;;;;;5029016;28;20607;-72
2021/06/06 03:24:09;;;;;;;1.25;0.60;;;14.90;99.90;;;;;;5033051;28;20100;-72
2021/06/06 03:26:35;;;;;;;1.20;0.55;;;14.90;99.90;;;;;;5029726;28;20588;-72
2021/06/06 03:29:05;;;;;;;0.40;0.30;;;14.90;99.90;;;;;;5029568;28;20082;-72
2021/06/06 03:31:36;;;;;;;1.67;0.45;;;14.80;99.90;;;;;;5028244;28;20195;-72
2021/06/06 03:34:04;;;;;;;0.90;0.50;;;14.80;99.90;;;;;;5031639;28;20098;-73
2021/06/06 03:36:31;;;;;;;2.85;0.40;;;14.90;99.90;;;;;;5027035;28;20532;-72
2021/06/06 03:38:57;;;;;;;0.85;0.40;;;14.90;99.90;;;;;;5026488;28;20182;-72
2021/06/06 03:41:25;;;;;;;0.77;0.28;;;14.90;99.90;;;;;;5028164;28;20788;-72
2021/06/06 03:43:51;;;;;;;1.17;0.40;;;14.80;99.90;;;;;;5026095;28;20086;-72
2021/06/06 03:46:18;;;;;;;0.77;0.60;;;14.80;99.90;;;;;;5027836;28;20070;-72
2021/06/06 03:48:44;;;;;;;1.65;0.47;;;14.80;99.90;;;;;;5038881;28;20070;-72
2021/06/06 03:51:10;;;;;;;1.33;0.60;;;14.80;99.90;;;;;;5028888;28;20484;-72
2021/06/06 03:53:36;;;;;;;1.52;0.75;;;14.90;99.90;;;;;;5014771;28;20577;-72
2021/06/06 03:56:04;;;;;;;0.70;0.50;;;14.90;99.90;;;;;;5021593;28;20082;-72
2021/06/06 03:58:30;;;;;;;0.40;0.30;;;14.90;99.90;;;;;;5025750;28;20538;-72
2021/06/06 04:00:56;;;;;;;0.63;0.40;;;14.70;99.90;;;;;;5028282;28;20102;-72
2021/06/06 04:03:21;;;;;;;1.90;0.63;;;14.80;99.90;;;;;;5029643;28;20098;-72
2021/06/06 04:05:49;;;;;;;1.55;0.60;;;14.70;99.90;;;;;;5030352;28;20129;-72
2021/06/06 04:08:15;;;;;;;1.60;0.40;;;14.70;99.90;;;;;;5032217;28;20084;-72
2021/06/06 04:10:41;;;;;;;2.22;0.82;;;14.70;99.90;;;;;;5032116;28;20089;-73
2021/06/06 04:13:08;;;;;;;1.67;0.50;;;14.70;99.90;;;;;;5031552;28;20496;-73
2021/06/06 04:15:33;;;;;;;1.00;0.73;;;14.70;99.90;;;;;;5030117;28;20084;-72
2021/06/06 04:18:12;;;;;;;1.90;0.50;;;14.80;99.90;;;;;;5030876;28;20085;-72
2021/06/06 04:20:38;;;;;;;0.82;0.50;;;14.90;99.90;;;;;;5031569;28;20176;-72
2021/06/06 04:23:03;;;;;;;1.52;0.70;;;14.90;99.90;;;;;;5034526;28;20210;-72
2021/06/06 04:25:29;;;;;;;0.40;0.40;;;14.80;99.90;;;;;;5035351;28;20605;-72
2021/06/06 04:27:55;;;;;;;1.58;0.60;;;14.70;99.90;;;;;;5030781;28;20084;-72
2021/06/06 04:30:21;;;;;;;1.95;0.60;;;14.70;99.90;;;;;;5031142;28;20549;-72
2021/06/06 04:32:47;;;;;;;1.67;0.47;;;14.80;99.90;;;;;;5031578;28;20127;-72
2021/06/06 04:35:14;;;;;;;3.90;0.60;;;14.90;99.90;;;;;;5030914;28;20160;-72
2021/06/06 04:37:40;;;;;;;1.67;0.40;;;14.80;99.90;;;;;;5012635;28;20513;-72
2021/06/06 04:40:07;;;;;;;0.82;0.40;;;14.80;99.90;;;;;;5031977;28;20149;-72
2021/06/06 04:42:33;;;;;;;2.05;0.45;;;14.70;99.90;;;;;;5031924;28;20189;-72
2021/06/06 04:44:58;;;;;;;0.90;0.50;;;14.70;99.90;;;;;;5030825;28;20165;-72
2021/06/06 04:47:24;;;;;;;1.08;0.40;;;14.70;99.90;;;;;;5033929;28;20073;-72
2021/06/06 04:49:49;;;;;;;0.95;0.60;;;14.70;99.90;;;;;;5037351;28;20077;-72
2021/06/06 04:52:15;;;;;;;1.30;0.50;;;14.70;99.90;;;;;;5033555;28;20656;-72
2021/06/06 04:54:41;;;;;;;0.77;0.30;;;14.70;99.90;;;;;;5036245;28;20108;-71
2021/06/06 04:57:07;;;;;;;3.05;0.50;;;14.70;99.90;;;;;;5028530;28;20076;-72
2021/06/06 04:59:35;;;;;;;1.20;0.60;;;14.80;99.90;;;;;;5031627;28;20134;-72
2021/06/06 05:02:03;;;;;;;1.77;0.60;;;14.80;99.90;;;;;;5035755;28;20203;-72
2021/06/06 05:04:29;;;;;;;0.80;0.50;;;14.80;99.90;;;;;;5030174;28;20143;-72
2021/06/06 05:06:54;;;;;;;0.80;0.50;;;14.80;99.90;;;;;;5029228;28;20696;-72
2021/06/06 05:09:20;;;;;;;1.00;0.50;;;14.90;99.90;;;;;;5030999;28;20664;-72
2021/06/06 05:11:45;;;;;;;0.75;0.35;;;15.00;99.90;;;;;;5030421;28;20448;-72
2021/06/06 05:14:11;;;;;;;3.15;0.60;;;14.90;99.90;;;;;;5029364;28;20093;-73
2021/06/06 05:16:37;;;;;;;0.80;0.38;;;14.90;99.90;;;;;;5028508;28;20089;-72
2021/06/06 05:19:03;;;;;;;0.85;0.60;;;14.90;99.90;;;;;;5029681;28;20081;-73
2021/06/06 05:21:29;;;;;;;0.40;0.40;;;15.00;99.90;;;;;;5029776;28;20102;-72
2021/06/06 05:23:55;;;;;;;0.85;0.30;;;14.90;99.90;;;;;;5043200;28;20553;-72
2021/06/06 05:26:21;;;;;;;0.70;0.40;;;15.00;99.90;;;;;;5028891;28;20078;-72
2021/06/06 05:28:46;;;;;;;0.40;0.30;;;15.00;99.90;;;;;;5030659;28;20074;-72
2021/06/06 05:31:14;;;;;;;2.60;0.85;;;15.00;99.90;;;;;;5030374;28;20264;-73
2021/06/06 05:33:39;;;;;;;0.70;0.40;;;14.90;99.90;;;;;;5030008;28;20089;-73
2021/06/06 05:36:05;;;;;;;0.70;0.32;;;14.90;99.90;;;;;;5029529;28;20085;-72
2021/06/06 05:38:32;;;;;;;1.52;0.40;;;14.90;99.90;;;;;;5028816;28;20169;-72
2021/06/06 05:40:59;;;;;;;1.77;0.60;;;15.00;99.90;;;;;;5028803;28;20093;-72
2021/06/06 05:43:26;;;;;;;1.27;0.38;;;14.80;99.90;;;;;;5028921;28;20101;-71
2021/06/06 05:45:53;;;;;;;2.47;0.55;;;14.90;99.90;;;;;;5012653;28;20110;-72
2021/06/06 05:48:19;;;;;;;0.63;0.35;;;14.90;99.90;;;;;;5023414;28;20070;-72
2021/06/06 05:50:47;;;;;;;0.52;0.30;;;14.90;99.90;;;;;;5029491;28;20135;-72
2021/06/06 05:53:12;;;;;;;0.88;0.52;;;14.80;99.90;;;;;;5033533;28;20227;-73
2021/06/06 05:55:38;;;;;;;1.02;0.32;;;14.90;99.90;;;;;;5027629;28;20861;-72
2021/06/06 05:58:05;;;;;;;0.70;0.50;;;14.90;99.90;;;;;;5029349;28;20093;-72
2021/06/06 06:00:35;;;;;;;1.65;1.05;;;14.80;99.90;;;;;;5029952;28;20462;-72
2021/06/06 06:03:01;;;;;;;0.57;0.32;;;14.80;99.90;;;;;;5029980;28;20605;-72
2021/06/06 06:05:27;;;;;;;1.30;0.30;;;14.80;99.90;;;;;;5029333;28;20081;-72
2021/06/06 06:07:52;;;;;;;1.00;0.28;;;14.90;99.90;;;;;;5031594;28;20096;-72
2021/06/06 06:10:29;;;;;;;0.63;0.40;;;14.90;99.90;;;;;;5028137;28;20152;-72
2021/06/06 06:12:57;;;;;;;0.30;0.30;;;14.90;99.90;;;;;;5029006;28;20550;-72
2021/06/06 06:15:22;;;;;;;1.83;0.35;;;14.90;99.90;;;;;;5038632;28;20084;-72
2021/06/06 06:17:48;;;;;;;0.57;0.30;;;14.90;99.90;;;;;;5034149;28;20161;-72
2021/06/06 06:20:17;;;;;;;2.15;0.40;;;15.00;99.90;;;;;;5044181;28;20091;-72
2021/06/06 06:22:43;;;;;;;0.63;0.30;;;15.10;99.90;;;;;;5030694;28;20461;-72
2021/06/06 06:25:13;;;;;;;0.85;0.30;;;15.00;99.90;;;;;;5030307;28;20084;-72
2021/06/06 06:27:38;;;;;;;0.63;0.20;;;15.10;99.90;;;;;;5042901;28;20106;-72
2021/06/06 06:30:07;;;;;;;0.47;0.20;;;15.10;99.90;;;;;;5032607;28;20695;-72
2021/06/06 06:32:33;;;;;;;0.20;0.20;;;15.10;99.90;;;;;;5028057;28;20128;-72
2021/06/06 06:34:58;;;;;;;0.98;0.52;;;15.00;99.90;;;;;;5030559;28;20560;-72
2021/06/06 06:37:25;;;;;;;0.28;0.20;;;15.00;99.90;;;;;;5010253;28;20069;-72
2021/06/06 06:39:51;;;;;;;1.88;0.30;;;15.00;99.90;;;;;;5028083;28;20711;-72
2021/06/06 06:42:17;;;;;;;0.60;0.30;;;15.00;99.90;;;;;;5027723;28;20086;-73
2021/06/06 06:44:44;;;;;;;5.63;0.52;;;15.00;99.90;;;;;;5030715;28;20526;-73
2021/06/06 06:47:10;;;;;;;0.30;0.25;;;15.00;99.90;;;;;;5028863;28;20078;-73
2021/06/06 06:49:35;;;;;;;0.40;0.30;;;15.00;99.90;;;;;;5040969;28;20088;-72
2021/06/06 06:52:01;;;;;;;0.55;0.30;;;15.10;99.90;;;;;;5029716;28;20444;-72
2021/06/06 06:54:27;;;;;;;1.45;0.30;;;15.10;99.90;;;;;;5040958;28;20147;-72
2021/06/06 06:56:52;;;;;;;0.30;0.28;;;15.20;99.90;;;;;;5033187;28;20182;-72
2021/06/06 06:59:18;;;;;;;1.98;0.30;;;15.20;99.90;;;;;;5027074;28;20612;-72
2021/06/06 07:01:43;;;;;;;0.43;0.20;;;15.20;99.90;;;;;;5028950;28;20574;-73
2021/06/06 07:04:09;;;;;;;1.17;0.30;;;15.20;99.90;;;;;;5011406;28;20090;-72
2021/06/06 07:06:34;;;;;;;0.52;0.40;;;15.30;99.90;;;;;;5028182;28;20074;-71
2021/06/06 07:09:00;;;;;;;0.70;0.10;;;15.30;99.90;;;;;;5029746;28;20149;-71
2021/06/06 07:11:26;;;;;;;0.57;0.40;;;15.20;99.90;;;;;;5029158;28;20159;-72
2021/06/06 07:13:52;;;;;;;0.32;0.25;;;15.20;99.90;;;;;;5027420;28;20181;-71
2021/06/06 07:16:20;;;;;;;1.55;0.30;;;15.20;99.90;;;;;;5028882;28;20753;-74
2021/06/06 07:18:47;;;;;;;0.47;0.20;;;15.30;99.90;;;;;;5028138;28;20082;-74
2021/06/06 07:21:17;;;;;;;0.50;0.30;;;15.20;99.90;;;;;;5027999;28;20093;-74
2021/06/06 07:23:43;;;;;;;0.70;0.50;;;15.30;99.90;;;;;;5044334;28;20092;-74
2021/06/06 07:26:18;;;;;;;1.65;0.38;;;15.50;99.90;;;;;;5031731;28;20074;-74
2021/06/06 07:28:44;;;;;;;0.40;0.40;;;15.50;99.90;;;;;;5027783;28;20076;-72
2021/06/06 07:31:11;;;;;;;1.05;0.93;;;15.60;99.90;;;;;;5041038;28;20102;-72
2021/06/06 07:33:42;;;;;;;0.65;0.30;;;15.60;99.90;;;;;;5022391;28;20097;-72
2021/06/06 07:36:10;;;;;;;0.50;0.38;;;15.60;99.90;;;;;;5027473;28;20085;-73
2021/06/06 07:38:36;;;;;;;0.38;0.30;;;15.60;99.90;;;;;;5026376;28;20114;-71
2021/06/06 07:41:02;;;;;;;0.20;0.20;;;15.70;99.90;;;;;;5026358;28;20126;-71
2021/06/06 07:43:28;;;;;;;0.30;0.22;;;15.60;99.90;;;;;;5029323;28;20228;-72
2021/06/06 07:45:55;;;;;;;1.42;0.40;;;15.60;99.90;;;;;;5026939;28;20499;-72
2021/06/06 07:48:21;;;;;;;0.75;0.30;;;15.70;99.90;;;;;;5028659;28;20157;-71
2021/06/06 07:50:49;;;;;;;0.63;0.43;;;15.60;99.90;;;;;;5027771;28;20160;-71
2021/06/06 07:53:16;;;;;;;0.47;0.30;;;15.70;99.90;;;;;;5039403;28;20107;-71
2021/06/06 07:55:43;;;;;;;1.80;0.40;;;15.70;99.90;;;;;;5067185;28;20456;-71
2021/06/06 07:58:09;;;;;;;0.57;0.45;;;15.70;99.90;;;;;;5035779;28;20084;-72
2021/06/06 08:00:40;;;;;;;0.43;0.30;;;15.80;99.90;;;;;;5027895;28;20457;-72
2021/06/06 08:03:06;;;;;;;0.32;0.20;;;15.80;99.90;;;;;;5028184;28;20248;-72
2021/06/06 08:05:34;;;;;;;0.50;0.30;;;15.80;99.90;;;;;;5010648;28;21821;-72
2021/06/06 08:08:00;;;;;;;0.40;0.30;;;15.90;99.90;;;;;;5038402;28;20106;-72
2021/06/06 08:10:27;;;;;;;0.30;0.30;;;15.90;99.90;;;;;;5034242;28;20565;-72
2021/06/06 08:12:52;;;;;;;2.15;0.30;;;15.90;99.90;;;;;;5034088;28;20936;-72
2021/06/06 08:15:20;;;;;;;0.90;0.10;;;15.90;99.90;;;;;;5034493;28;20136;-71
2021/06/06 08:17:46;;;;;;;0.30;0.28;;;15.80;99.90;;;;;;5035708;28;20086;-72
2021/06/06 08:20:15;;;;;;;0.35;0.20;;;15.80;99.90;;;;;;5037288;28;20220;-72
2021/06/06 08:22:41;;;;;;;1.48;0.30;;;15.90;99.90;;;;;;5021422;28;20100;-72
2021/06/06 08:25:10;;;;;;;0.63;0.43;;;15.90;99.90;;;;;;5020098;28;20074;-73
2021/06/06 08:27:37;;;;;;;0.63;0.40;;;15.80;99.90;;;;;;5014870;28;20343;-72
2021/06/06 08:30:09;;;;;;;0.20;0.10;;;15.80;99.90;;;;;;5033893;28;20440;-72
2021/06/06 08:32:35;;;;;;;0.70;0.40;;;15.80;99.90;;;;;;5035209;28;20072;-73
2021/06/06 08:35:01;;;;;;;0.77;0.40;;;15.80;99.90;;;;;;5030091;28;20073;-73
2021/06/06 08:37:26;;;;;;;1.02;0.68;;;15.80;99.90;;;;;;5010318;28;20154;-72
2021/06/06 08:39:52;;;;;;;0.30;0.30;;;15.80;99.90;;;;;;5028711;28;20556;-73
2021/06/06 08:42:23;;;;;;;1.15;0.40;;;15.80;99.90;;;;;;5031647;28;20093;-73
2021/06/06 08:45:26;;;;;;;0.70;0.10;;;15.90;99.90;;;;;;5028066;28;20066;-73
2021/06/06 08:47:55;;;;;;;0.40;0.28;;;15.80;99.90;;;;;;5033071;28;20076;-73
2021/06/06 08:50:26;;;;;;;1.35;0.40;;;15.90;99.90;;;;;;5012901;28;20108;-73
2021/06/06 08:52:57;;;;;;;0.95;0.30;;;15.80;99.90;;;;;;5017543;28;20098;-73
2021/06/06 08:55:46;;;;;;;1.40;0.20;;;15.90;99.90;;;;;;5032360;28;20423;-74
2021/06/06 08:58:31;;;;;;;0.63;0.20;;;15.90;99.90;;;;;;5022051;28;20081;-74
2021/06/06 09:01:21;;;;;;;1.20;0.80;;;15.90;99.90;;;;;;5032575;28;20154;-74
2021/06/06 09:03:49;;;;;;;0.70;0.50;;;15.90;99.90;;;;;;5031847;28;20235;-73
2021/06/06 09:06:23;;;;;;;1.35;0.93;;;16.00;99.90;;;;;;5025576;28;20101;-76
2021/06/06 09:08:49;;;;;;;1.17;0.45;;;16.00;99.90;;;;;;5029351;28;20073;-75
2021/06/06 09:11:17;;;;;;;1.45;1.35;;;16.10;99.90;;;;;;5032033;28;20085;-76
2021/06/06 09:13:43;;;;;;;1.80;0.80;;;16.10;99.90;;;;;;5031023;28;20121;-73
2021/06/06 09:16:25;;;;;;;1.42;0.75;;;16.10;99.90;;;;;;5029263;28;20081;-74
2021/06/06 09:19:10;;;;;;;2.00;0.40;;;16.10;99.90;;;;;;5034522;28;20204;-75
2021/06/06 09:22:04;;;;;;;1.75;0.45;;;16.10;99.90;;;;;;5030473;28;20093;-75
2021/06/06 09:24:38;;;;;;;0.68;0.22;;;16.10;99.90;;;;;;5032652;28;20175;-74
2021/06/06 09:27:14;;;;;;;0.88;0.50;;;16.20;99.90;;;;;;5032511;28;20081;-74
2021/06/06 09:30:21;;;;;;;0.55;0.35;;;16.20;99.90;;;;;;5030931;28;20159;-73
2021/06/06 09:32:49;;;;;;;1.25;0.30;;;16.20;99.90;;;;;;5011941;28;20081;-72
2021/06/06 09:35:33;;;;;;;1.85;0.30;;;16.20;99.90;;;;;;5025737;28;20074;-73
2021/06/06 09:38:14;;;;;;;0.93;0.30;;;16.20;99.90;;;;;;5037851;28;20569;-74
2021/06/06 09:40:44;;;;;;;0.77;0.30;;;16.20;99.90;;;;;;5029105;28;20132;-74
2021/06/06 09:43:21;;;;;;;0.45;0.20;;;16.30;99.90;;;;;;5033913;28;20123;-73
2021/06/06 09:45:47;;;;;;;0.90;0.60;;;16.30;99.90;;;;;;5028869;28;20587;-72
2021/06/06 09:48:27;;;;;;;0.85;0.47;;;16.30;99.90;;;;;;5031518;28;20533;-75
2021/06/06 09:50:54;;;;;;;0.80;0.40;;;16.40;99.90;;;;;;5030432;28;20081;-74
2021/06/06 09:53:25;;;;;;;0.30;0.20;;;16.40;99.90;;;;;;5033432;28;20112;-74
2021/06/06 09:56:04;;;;;;;0.55;0.40;;;16.30;99.90;;;;;;5039386;28;20101;-76
2021/06/06 09:58:33;;;;;;;3.17;0.52;;;16.30;99.90;;;;;;5037109;28;20092;-73
2021/06/06 10:01:30;;;;;;;1.50;0.40;;;16.40;99.90;;;;;;5018900;28;20098;-74
2021/06/06 10:03:58;;;;;;;0.40;0.28;;;16.30;99.90;;;;;;5020424;28;20100;-73
2021/06/06 10:06:29;;;;;;;3.50;2.20;;;16.30;99.90;;;;;;5016248;28;20078;-75
2021/06/06 10:09:13;;;;;;;3.33;2.30;;;16.40;99.90;;;;;;5036581;28;20074;-73
2021/06/06 10:12:11;;;;;;;1.48;0.45;;;16.30;99.90;;;;;;5043278;28;20092;-74
2021/06/06 10:14:50;;;;;;;2.42;1.20;;;16.30;99.90;;;;;;5039295;28;20712;-74
2021/06/06 10:17:28;;;;;;;1.00;0.90;;;16.40;99.90;;;;;;5037219;28;20089;-73
2021/06/06 10:20:16;;;;;;;4.38;2.22;;;16.50;99.90;;;;;;5037373;28;20081;-73
2021/06/06 10:22:49;;;;;;;0.70;0.40;;;16.50;99.90;;;;;;5020686;28;20109;-73
2021/06/06 10:25:21;;;;;;;0.82;0.30;;;16.50;99.90;;;;;;5037624;28;20082;-73
2021/06/06 10:27:53;;;;;;;0.40;0.20;;;16.40;99.90;;;;;;5042276;28;20187;-73
2021/06/06 10:30:43;;;;;;;0.75;0.30;;;16.50;99.90;;;;;;5023496;28;20085;-73
2021/06/06 10:33:27;;;;;;;0.40;0.30;;;16.40;99.90;;;;;;5036079;28;20191;-73
2021/06/06 10:35:53;;;;;;;1.10;0.65;;;16.40;99.90;;;;;;5038083;28;20097;-73
2021/06/06 10:38:20;;;;;;;0.77;0.20;;;16.50;99.90;;;;;;5037383;28;20100;-73
2021/06/06 10:40:52;;;;;;;1.25;0.75;;;16.40;99.90;;;;;;5037477;28;20178;-73
2021/06/06 10:43:36;;;;;;;1.35;0.82;;;16.40;99.90;;;;;;5040610;28;20100;-73
2021/06/06 10:46:13;;;;;;;5.07;3.60;;;16.40;99.90;;;;;;5027322;28;20123;-73
2021/06/06 10:48:45;;;;;;;0.63;0.40;;;16.50;99.90;;;;;;5045794;28;20065;-73
2021/06/06 10:51:34;;;;;;;0.20;0.20;;;16.60;99.90;;;;;;5040451;28;20132;-72
2021/06/06 10:54:07;;;;;;;1.65;0.30;;;16.50;99.90;;;;;;5042174;28;20230;-73
2021/06/06 10:56:51;;;;;;;0.95;0.30;;;16.50;99.90;;;;;;5026162;28;20131;-73
2021/06/06 10:59:49;;;;;;;0.95;0.40;;;16.40;99.90;;;;;;5026290;28;20089;-76
2021/06/06 11:02:32;;;;;;;0.95;0.40;;;16.40;99.90;;;;;;4945471;28;20132;-77
2021/06/06 11:05:29;;;;;;;0.40;0.30;;;16.40;99.90;;;;;;5021473;28;20077;-73
2021/06/06 11:07:55;;;;;;;0.38;0.30;;;16.50;99.90;;;;;;5023632;28;20139;-73
2021/06/06 11:10:29;;;;;;;0.20;0.20;;;16.40;99.90;;;;;;5034065;28;20081;-73
2021/06/06 11:12:57;;;;;;;0.90;0.50;;;16.40;99.90;;;;;;5039519;28;20109;-73
2021/06/06 11:15:39;;;;;;;1.75;0.45;;;16.50;99.90;;;;;;5034853;28;20089;-73
2021/06/06 11:18:17;;;;;;;0.40;0.13;;;16.60;99.90;;;;;;5022072;28;20077;-73
2021/06/06 11:21:09;;;;;;;0.90;0.20;;;16.50;99.90;;;;;;5037869;28;20089;-73
2021/06/06 11:23:53;;;;;;;0.30;0.20;;;16.50;99.90;;;;;;5036278;28;20505;-72
2021/06/06 11:26:32;;;;;;;1.27;0.40;;;16.40;99.90;;;;;;5039844;28;20092;-72
2021/06/06 11:29:18;;;;;;;1.15;0.98;;;16.50;99.90;;;;;;5038917;28;20525;-72
2021/06/06 11:32:10;;;;;;;0.30;0.20;;;16.50;99.90;;;;;;5020402;28;20073;-72
2021/06/06 11:34:40;;;;;;;0.65;0.30;;;16.50;99.90;;;;;;5032905;28;20097;-73
2021/06/06 11:37:08;;;;;;;0.38;0.20;;;16.50;99.90;;;;;;5026630;28;20564;-72
2021/06/06 11:39:42;;;;;;;1.02;0.40;;;16.50;99.90;;;;;;5027607;28;20082;-72
2021/06/06 11:42:18;;;;;;;0.68;0.30;;;16.50;99.90;;;;;;5027697;28;20112;-71
2021/06/06 11:44:48;;;;;;;0.43;0.30;;;16.50;99.90;;;;;;5027819;28;20147;-72
2021/06/06 11:47:17;;;;;;;1.35;0.20;;;16.50;99.90;;;;;;5029150;28;20422;-72
2021/06/06 11:49:52;;;;;;;0.55;0.40;;;16.60;99.90;;;;;;5045471;28;20093;-72
2021/06/06 11:52:34;;;;;;;0.63;0.20;;;16.70;99.90;;;;;;5037574;28;20138;-71
2021/06/06 11:55:29;;;;;;;0.80;0.45;;;16.70;99.90;;;;;;5024360;28;20081;-71
2021/06/06 11:58:35;;;;;;;0.20;0.20;;;16.70;99.90;;;;;;4996746;28;20109;-72
2021/06/06 12:01:13;;;;;;;0.38;0.25;;;16.80;99.90;;;;;;5016771;28;20105;-71
2021/06/06 12:03:41;;;;;;;0.52;0.30;;;17.00;99.90;;;;;;5038062;28;20557;-71
2021/06/06 12:06:13;;;;;;;0.57;0.22;;;17.00;99.90;;;;;;5036546;28;20089;-71
2021/06/06 12:08:45;;;;;;;0.70;0.15;;;17.10;99.90;;;;;;5013332;28;20121;-71
2021/06/06 12:11:19;;;;;;;0.82;0.30;;;17.10;99.90;;;;;;5045873;28;20109;-72
2021/06/06 12:13:48;;;;;;;0.75;0.28;;;17.20;99.90;;;;;;5035434;28;20089;-73
2021/06/06 12:16:26;;;;;;;0.20;0.13;;;17.20;99.90;;;;;;5039549;28;20081;-73
2021/06/06 12:19:06;;;;;;;0.52;0.17;;;17.20;99.90;;;;;;5038110;28;20084;-72
2021/06/06 12:21:36;;;;;;;0.22;0.10;;;17.30;99.90;;;;;;5037957;28;20086;-72
2021/06/06 12:24:14;;;;;;;1.85;0.20;;;17.30;99.90;;;;;;5040525;28;20456;-72
2021/06/06 12:26:50;;;;;;;0.40;0.22;;;17.40;99.90;;;;;;5042931;28;20066;-73
2021/06/06 12:29:32;;;;;;;0.10;0.10;;;17.50;99.90;;;;;;5038639;28;20156;-73
2021/06/06 12:32:07;;;;;;;0.75;0.22;;;17.50;99.90;;;;;;5042543;28;20960;-73
2021/06/06 12:34:33;;;;;;;1.88;0.95;;;17.50;99.90;;;;;;5038987;28;21120;-76
2021/06/06 12:37:02;;;;;;;2.60;0.93;;;17.60;99.90;;;;;;5039024;28;20081;-73
2021/06/06 12:39:29;;;;;;;0.40;0.25;;;17.60;99.90;;;;;;5042721;28;20077;-74
2021/06/06 12:41:56;;;;;;;0.60;0.47;;;17.50;99.90;;;;;;5037819;28;20097;-72
2021/06/06 12:44:30;;;;;;;0.80;0.38;;;17.50;99.90;;;;;;5040115;28;20135;-73
2021/06/06 12:46:59;;;;;;;0.28;0.10;;;17.60;99.90;;;;;;5021234;28;20150;-72
2021/06/06 12:49:51;;;;;;;0.65;0.50;;;17.50;99.90;;;;;;5016699;28;20216;-71
2021/06/06 12:52:38;;;;;;;1.15;0.85;;;17.60;99.90;;;;;;5031595;28;20085;-73
2021/06/06 12:55:22;;;;;;;0.50;0.20;;;17.50;99.90;;;;;;5029701;28;20090;-71
2021/06/06 12:57:52;;;;;;;0.13;0.10;;;17.50;99.90;;;;;;5013057;28;20116;-71
2021/06/06 13:00:27;;;;;;;0.50;0.10;;;17.50;99.90;;;;;;5039862;28;20081;-72
2021/06/06 13:02:54;;;;;;;0.55;0.22;;;17.50;99.90;;;;;;5036975;28;20101;-71
2021/06/06 13:05:41;;;;;;;1.17;0.40;;;17.50;99.90;;;;;;5034847;28;20210;-71
2021/06/06 13:08:21;;;;;;;1.17;0.10;;;17.50;99.90;;;;;;5025663;28;20076;-71
2021/06/06 13:10:58;;;;;;;0.20;0.20;;;17.50;99.90;;;;;;5024228;28;20169;-71